Time;durP1;ratioP1;P1;durP2;ratioP2;P2;SDS_P1;SDS_P2;PMS_P1;PMS_P2;Temp;Humidity;BMP_temperature;BMP_pressure;BME280_temperature;BME280_humidity;BME280_pressure;Samples;Min_cycle;Max_cycle;Signal;HPM_P1;HPM_P2
2021/01/25 00:01:44;;;;;;;22.43;14.97;;;2.90;99.90;;;;;;5092549;28;20297;-81
2021/01/25 00:04:10;;;;;;;22.70;16.03;;;3.00;99.90;;;;;;5089721;28;20195;-80
2021/01/25 00:06:37;;;;;;;17.60;14.87;;;2.90;99.90;;;;;;5077286;28;20251;-82
2021/01/25 00:09:05;;;;;;;21.87;16.30;;;2.90;99.90;;;;;;5076688;28;20294;-80
2021/01/25 00:11:31;;;;;;;20.20;14.57;;;2.90;99.90;;;;;;5089322;28;20226;-80
2021/01/25 00:13:58;;;;;;;20.03;16.17;;;2.90;99.90;;;;;;5096945;28;20200;-81
2021/01/25 00:16:24;;;;;;;22.73;15.80;;;2.90;99.90;;;;;;5097136;28;20228;-81
2021/01/25 00:18:50;;;;;;;20.80;15.90;;;2.90;99.90;;;;;;5083254;28;20256;-81
2021/01/25 00:21:17;;;;;;;22.23;16.37;;;2.90;99.90;;;;;;5088765;28;20285;-80
2021/01/25 00:23:48;;;;;;;22.80;16.03;;;2.90;99.90;;;;;;5076792;28;20198;-81
2021/01/25 00:26:14;;;;;;;21.40;15.97;;;2.90;99.90;;;;;;5097091;28;20202;-80
2021/01/25 00:28:40;;;;;;;20.37;15.10;;;2.90;99.90;;;;;;5083408;28;20290;-80
2021/01/25 00:31:07;;;;;;;19.27;15.97;;;2.90;99.90;;;;;;5096220;28;20658;-80
2021/01/25 00:33:33;;;;;;;20.77;15.20;;;2.90;99.90;;;;;;5085278;28;20672;-80
2021/01/25 00:36:00;;;;;;;21.13;14.80;;;3.00;99.90;;;;;;5094461;28;20569;-80
2021/01/25 00:38:27;;;;;;;21.20;15.10;;;3.00;99.90;;;;;;5086929;28;20285;-80
2021/01/25 00:40:54;;;;;;;18.93;15.33;;;3.00;99.90;;;;;;5090806;28;20550;-81
2021/01/25 00:43:20;;;;;;;18.07;14.07;;;2.90;99.90;;;;;;5084495;28;20243;-81
2021/01/25 00:45:47;;;;;;;19.33;14.13;;;3.00;99.90;;;;;;5096108;28;20564;-81
2021/01/25 00:48:13;;;;;;;18.67;14.67;;;3.00;99.90;;;;;;5096357;28;20661;-81
2021/01/25 00:50:39;;;;;;;18.20;14.97;;;3.00;99.90;;;;;;5096464;28;20624;-80
2021/01/25 00:53:07;;;;;;;19.57;13.90;;;3.00;99.90;;;;;;5095704;28;20296;-79
2021/01/25 00:55:33;;;;;;;19.37;15.20;;;3.00;99.90;;;;;;5083006;28;20259;-80
2021/01/25 00:58:01;;;;;;;20.13;14.93;;;3.00;99.90;;;;;;5096373;28;20224;-80
2021/01/25 01:00:28;;;;;;;18.27;14.20;;;3.00;99.90;;;;;;5095910;28;20645;-79
2021/01/25 01:02:54;;;;;;;15.33;13.07;;;3.00;99.90;;;;;;5095713;28;20212;-80
2021/01/25 01:05:21;;;;;;;19.07;14.07;;;2.90;99.90;;;;;;5095915;28;20209;-80
2021/01/25 01:07:47;;;;;;;16.47;13.17;;;3.00;99.90;;;;;;5086745;28;20221;-80
2021/01/25 01:10:14;;;;;;;17.97;13.70;;;2.90;99.90;;;;;;5075934;28;20206;-80
2021/01/25 01:12:40;;;;;;;17.20;13.40;;;3.00;99.90;;;;;;5083542;28;20215;-80
2021/01/25 01:15:11;;;;;;;16.47;13.60;;;3.00;99.90;;;;;;5081939;28;20289;-80
2021/01/25 01:17:39;;;;;;;16.57;12.80;;;3.00;99.90;;;;;;5075404;28;20739;-80
2021/01/25 01:20:07;;;;;;;18.43;14.10;;;3.00;99.90;;;;;;5088332;28;20576;-80
2021/01/25 01:22:33;;;;;;;20.17;13.87;;;2.90;99.90;;;;;;5081280;28;20652;-81
2021/01/25 01:25:00;;;;;;;18.60;12.77;;;3.00;99.90;;;;;;5095541;28;20683;-81
2021/01/25 01:27:26;;;;;;;16.07;13.03;;;2.90;99.90;;;;;;5092426;28;20213;-80
2021/01/25 01:29:53;;;;;;;16.03;12.57;;;3.00;99.90;;;;;;5085103;28;20262;-80
2021/01/25 01:32:20;;;;;;;16.80;12.93;;;2.70;99.90;;;;;;5095123;28;20202;-80
2021/01/25 01:34:47;;;;;;;16.23;12.67;;;2.70;99.90;;;;;;5095284;28;20661;-80
2021/01/25 01:37:14;;;;;;;17.20;13.40;;;2.70;99.90;;;;;;5095255;28;20584;-79
2021/01/25 01:39:40;;;;;;;14.60;12.63;;;2.60;99.90;;;;;;5095419;28;20201;-80
2021/01/25 01:42:13;;;;;;;14.50;12.57;;;2.60;99.90;;;;;;5083004;28;20612;-80
2021/01/25 01:44:40;;;;;;;14.93;13.17;;;2.50;99.90;;;;;;5075282;28;20202;-80
2021/01/25 01:47:07;;;;;;;23.53;13.47;;;2.60;99.90;;;;;;5086737;28;20198;-80
2021/01/25 01:49:35;;;;;;;17.47;13.13;;;2.60;99.90;;;;;;5092030;28;20247;-80
2021/01/25 01:52:01;;;;;;;16.30;13.00;;;2.60;99.90;;;;;;5075219;28;20603;-80
2021/01/25 01:54:28;;;;;;;16.33;12.70;;;2.60;99.90;;;;;;5079024;28;20277;-80
2021/01/25 01:56:54;;;;;;;19.30;14.03;;;2.60;99.90;;;;;;5074598;28;20233;-80
2021/01/25 01:59:20;;;;;;;20.33;14.37;;;2.50;99.90;;;;;;5084496;28;20251;-80
2021/01/25 02:01:47;;;;;;;19.23;14.60;;;2.60;99.90;;;;;;5093053;28;20198;-81
2021/01/25 02:04:14;;;;;;;18.23;13.83;;;2.70;99.90;;;;;;5074637;28;20213;-81
2021/01/25 02:06:43;;;;;;;21.10;15.70;;;2.70;99.90;;;;;;5089032;28;20217;-80
2021/01/25 02:09:11;;;;;;;17.27;14.20;;;2.70;99.90;;;;;;5094745;28;20209;-80
2021/01/25 02:11:38;;;;;;;19.20;13.60;;;2.70;99.90;;;;;;5081991;28;20213;-80
2021/01/25 02:14:06;;;;;;;18.60;13.30;;;2.70;99.90;;;;;;5074019;28;20199;-80
2021/01/25 02:16:33;;;;;;;16.57;13.87;;;2.70;99.90;;;;;;5074436;28;20233;-80
2021/01/25 02:19:03;;;;;;;16.40;13.47;;;2.80;99.90;;;;;;5092498;28;20667;-80
2021/01/25 02:21:31;;;;;;;20.33;13.90;;;2.70;99.90;;;;;;5094322;28;20288;-80
2021/01/25 02:24:20;;;;;;;18.10;14.33;;;2.80;99.90;;;;;;5094536;28;20198;-81
2021/01/25 02:27:15;;;;;;;20.13;13.57;;;2.80;99.90;;;;;;5082779;28;20203;-80
2021/01/25 02:29:43;;;;;;;20.23;15.20;;;2.80;99.90;;;;;;5061869;28;20654;-80
2021/01/25 02:32:10;;;;;;;18.03;14.60;;;3.00;99.90;;;;;;5088672;28;20195;-81
2021/01/25 02:34:38;;;;;;;17.97;13.37;;;3.00;99.90;;;;;;5067009;28;20218;-80
2021/01/25 02:37:06;;;;;;;19.57;13.63;;;2.80;99.90;;;;;;5074108;28;20242;-80
2021/01/25 02:39:33;;;;;;;20.83;14.67;;;2.80;99.90;;;;;;5073680;28;20214;-80
2021/01/25 02:42:01;;;;;;;21.63;14.40;;;2.80;99.90;;;;;;5074080;28;20646;-80
2021/01/25 02:44:29;;;;;;;20.87;14.37;;;2.80;99.90;;;;;;5073770;28;20195;-80
2021/01/25 02:46:58;;;;;;;19.27;14.03;;;2.80;99.90;;;;;;5074161;28;20538;-80
2021/01/25 02:49:25;;;;;;;16.97;13.90;;;2.80;99.90;;;;;;5073989;28;20209;-80
2021/01/25 02:51:51;;;;;;;18.00;13.77;;;2.80;99.90;;;;;;5073786;28;20234;-80
2021/01/25 02:54:17;;;;;;;19.03;13.60;;;2.90;99.90;;;;;;5073747;28;20632;-81
2021/01/25 02:56:44;;;;;;;20.87;14.60;;;2.90;99.90;;;;;;5080876;28;20229;-79
2021/01/25 02:59:12;;;;;;;17.07;13.77;;;2.90;99.90;;;;;;5081006;28;20302;-80
2021/01/25 03:01:40;;;;;;;22.40;13.97;;;2.90;99.90;;;;;;5073799;28;20202;-80
2021/01/25 03:04:07;;;;;;;20.13;14.47;;;2.90;99.90;;;;;;5073909;28;20199;-80
2021/01/25 03:06:34;;;;;;;17.63;13.37;;;2.90;99.90;;;;;;5073632;28;20285;-80
2021/01/25 03:09:00;;;;;;;21.10;14.50;;;2.90;99.90;;;;;;5073749;28;20213;-80
2021/01/25 03:11:28;;;;;;;17.57;14.57;;;2.80;99.90;;;;;;5073148;28;20201;-80
2021/01/25 03:14:04;;;;;;;20.87;14.47;;;2.90;99.90;;;;;;5073341;28;20260;-81
2021/01/25 03:16:31;;;;;;;21.33;14.67;;;2.90;99.90;;;;;;5072660;28;20280;-81
2021/01/25 03:18:57;;;;;;;20.87;14.07;;;3.00;99.90;;;;;;5073353;28;20242;-81
2021/01/25 03:21:24;;;;;;;18.80;15.47;;;2.90;99.90;;;;;;5072935;28;20676;-80
2021/01/25 03:23:52;;;;;;;20.30;14.23;;;2.90;99.90;;;;;;5073040;28;20576;-82
2021/01/25 03:26:18;;;;;;;20.07;15.53;;;2.90;99.90;;;;;;5072943;28;20538;-81
2021/01/25 03:28:45;;;;;;;24.70;15.87;;;3.10;99.90;;;;;;5072974;28;20201;-81
2021/01/25 03:31:11;;;;;;;22.80;15.43;;;2.90;99.90;;;;;;5073505;28;20232;-81
2021/01/25 03:33:37;;;;;;;22.43;15.60;;;2.90;99.90;;;;;;5073367;28;20195;-81
2021/01/25 03:36:04;;;;;;;20.60;15.63;;;2.90;99.90;;;;;;5073534;28;20229;-80
2021/01/25 03:38:32;;;;;;;19.77;14.63;;;2.90;99.90;;;;;;5072918;28;20252;-81
2021/01/25 03:40:59;;;;;;;23.73;16.67;;;2.90;99.90;;;;;;5073072;28;20218;-81
2021/01/25 03:43:25;;;;;;;17.97;14.60;;;2.90;99.90;;;;;;5073474;28;20202;-81
2021/01/25 03:45:52;;;;;;;21.57;16.07;;;2.80;99.90;;;;;;5072912;28;20229;-81
2021/01/25 03:48:18;;;;;;;22.00;17.00;;;2.90;99.90;;;;;;5072973;28;20717;-81
2021/01/25 03:50:45;;;;;;;21.80;16.00;;;3.00;99.90;;;;;;5086919;28;20206;-81
2021/01/25 03:53:11;;;;;;;21.40;16.73;;;2.90;99.90;;;;;;5073370;28;20207;-81
2021/01/25 03:55:39;;;;;;;23.80;16.97;;;2.90;99.90;;;;;;5073062;28;20248;-81
2021/01/25 03:58:05;;;;;;;26.17;17.60;;;2.90;99.90;;;;;;5073515;28;20222;-81
2021/01/25 04:00:31;;;;;;;27.03;18.40;;;2.90;99.90;;;;;;5073225;28;20281;-81
2021/01/25 04:02:58;;;;;;;25.53;16.87;;;2.80;99.90;;;;;;5073076;28;20202;-80
2021/01/25 04:05:24;;;;;;;24.00;18.00;;;2.80;99.90;;;;;;5073107;28;20199;-81
2021/01/25 04:07:50;;;;;;;23.47;17.33;;;2.70;99.90;;;;;;5072987;28;20246;-81
2021/01/25 04:10:17;;;;;;;30.03;18.73;;;2.80;99.90;;;;;;5073091;28;20532;-81
2021/01/25 04:12:44;;;;;;;26.37;17.90;;;2.80;99.90;;;;;;5072688;28;20633;-80
2021/01/25 04:15:11;;;;;;;25.60;17.83;;;2.80;99.90;;;;;;5073054;28;20294;-80
2021/01/25 04:17:37;;;;;;;29.53;17.80;;;2.80;99.90;;;;;;5072703;28;20298;-82
2021/01/25 04:20:05;;;;;;;26.43;20.10;;;2.90;99.90;;;;;;5072870;28;20681;-80
2021/01/25 04:22:32;;;;;;;29.37;20.47;;;2.80;99.90;;;;;;5072617;28;20199;-80
2021/01/25 04:24:58;;;;;;;26.83;19.13;;;3.00;99.90;;;;;;5072779;28;20207;-80
2021/01/25 04:27:25;;;;;;;30.67;19.83;;;2.90;99.90;;;;;;5072743;28;20203;-80
2021/01/25 04:29:52;;;;;;;36.17;20.90;;;2.90;99.90;;;;;;5086503;28;20205;-81
2021/01/25 04:32:18;;;;;;;30.13;20.37;;;2.90;99.90;;;;;;5072683;28;20737;-80
2021/01/25 04:34:45;;;;;;;28.00;19.90;;;2.90;99.90;;;;;;5072334;28;20278;-81
2021/01/25 04:37:12;;;;;;;27.70;20.70;;;2.90;99.90;;;;;;5073439;28;20317;-80
2021/01/25 04:39:38;;;;;;;28.93;21.10;;;2.80;99.90;;;;;;5076198;28;20669;-80
2021/01/25 04:42:05;;;;;;;27.00;20.70;;;3.00;99.90;;;;;;5076076;28;20646;-80
2021/01/25 04:44:32;;;;;;;25.87;19.77;;;2.80;99.90;;;;;;5076420;28;20201;-80
2021/01/25 04:47:01;;;;;;;30.73;20.63;;;2.70;99.90;;;;;;5075882;28;20225;-80
2021/01/25 04:49:28;;;;;;;28.93;21.27;;;2.80;99.90;;;;;;5076877;28;20203;-80
2021/01/25 04:51:55;;;;;;;29.43;20.23;;;2.80;99.90;;;;;;5076457;28;20213;-81
2021/01/25 04:54:22;;;;;;;30.40;21.77;;;2.80;99.90;;;;;;5075781;28;20209;-81
2021/01/25 04:56:50;;;;;;;36.27;22.90;;;2.80;99.90;;;;;;5076171;28;20227;-80
2021/01/25 04:59:16;;;;;;;36.90;22.33;;;2.80;99.90;;;;;;5075901;28;20286;-80
2021/01/25 05:01:42;;;;;;;34.37;23.20;;;2.80;99.90;;;;;;5076006;28;20205;-81
2021/01/25 05:04:10;;;;;;;37.87;23.63;;;2.80;99.90;;;;;;5075732;28;20207;-81
2021/01/25 05:06:36;;;;;;;34.43;23.67;;;2.80;99.90;;;;;;5076031;28;20263;-80
2021/01/25 05:09:03;;;;;;;34.80;23.30;;;2.80;99.90;;;;;;5076052;28;20209;-81
2021/01/25 05:11:30;;;;;;;35.13;23.33;;;2.80;99.90;;;;;;5075459;28;20203;-80
2021/01/25 05:14:03;;;;;;;33.97;23.07;;;2.80;99.90;;;;;;5075899;28;20199;-80
2021/01/25 05:16:31;;;;;;;35.13;22.77;;;2.80;99.90;;;;;;5075418;28;20270;-80
2021/01/25 05:18:58;;;;;;;33.47;23.80;;;2.90;99.90;;;;;;5075843;28;20654;-80
2021/01/25 05:21:33;;;;;;;37.73;23.37;;;2.80;99.90;;;;;;5075869;28;20199;-81
2021/01/25 05:24:04;;;;;;;33.93;23.93;;;2.80;99.90;;;;;;5075956;28;20201;-80
2021/01/25 05:26:30;;;;;;;30.77;22.07;;;2.80;99.90;;;;;;5075587;28;20264;-83
2021/01/25 05:28:56;;;;;;;30.23;22.00;;;2.80;99.90;;;;;;5075655;28;20606;-80
2021/01/25 05:31:24;;;;;;;38.33;23.57;;;2.80;99.90;;;;;;5075146;28;20684;-81
2021/01/25 05:33:51;;;;;;;39.27;24.57;;;2.80;99.90;;;;;;5075492;28;20642;-81
2021/01/25 05:36:20;;;;;;;39.57;25.30;;;2.80;99.90;;;;;;5075611;28;20207;-80
2021/01/25 05:38:49;;;;;;;33.33;24.83;;;2.90;99.90;;;;;;5075111;28;20557;-80
2021/01/25 05:41:16;;;;;;;35.90;24.83;;;2.80;99.90;;;;;;5075296;28;20199;-80
2021/01/25 05:43:43;;;;;;;35.40;24.77;;;2.80;99.90;;;;;;5075178;28;20210;-81
2021/01/25 05:46:10;;;;;;;37.17;24.37;;;2.90;99.90;;;;;;5075451;28;20286;-80
2021/01/25 05:48:37;;;;;;;36.87;24.33;;;2.80;99.90;;;;;;5074750;28;20199;-81
2021/01/25 05:51:14;;;;;;;39.50;24.67;;;2.90;99.90;;;;;;5075343;28;20286;-81
2021/01/25 05:53:42;;;;;;;41.97;25.13;;;2.90;99.90;;;;;;5074918;28;20236;-81
2021/01/25 05:56:11;;;;;;;35.10;24.87;;;2.80;99.90;;;;;;5088776;28;20206;-81
2021/01/25 05:58:37;;;;;;;38.53;24.90;;;2.80;99.90;;;;;;5075117;28;20229;-81
2021/01/25 06:01:04;;;;;;;39.40;26.03;;;2.80;99.90;;;;;;5074633;28;20199;-80
2021/01/25 06:03:36;;;;;;;35.57;24.60;;;2.80;99.90;;;;;;5074686;28;20633;-81
2021/01/25 06:06:06;;;;;;;33.23;23.97;;;2.80;99.90;;;;;;5077207;28;20546;-81
2021/01/25 06:08:43;;;;;;;34.60;23.27;;;2.90;99.90;;;;;;5086476;28;20209;-81
2021/01/25 06:11:18;;;;;;;36.73;23.73;;;2.90;99.90;;;;;;5074341;28;20286;-80
2021/01/25 06:13:53;;;;;;;32.70;23.60;;;2.90;99.90;;;;;;5074836;28;20543;-80
2021/01/25 06:16:22;;;;;;;38.63;24.00;;;2.90;99.90;;;;;;5074826;28;20211;-80
2021/01/25 06:18:48;;;;;;;34.33;23.30;;;2.90;99.90;;;;;;5074740;28;20289;-80
2021/01/25 06:21:21;;;;;;;33.57;24.43;;;2.80;99.90;;;;;;5074233;28;20203;-80
2021/01/25 06:23:47;;;;;;;37.50;24.43;;;2.80;99.90;;;;;;5074545;28;20651;-80
2021/01/25 06:26:15;;;;;;;35.53;24.13;;;2.90;99.90;;;;;;5074404;28;20195;-82
2021/01/25 06:28:42;;;;;;;35.67;24.47;;;2.90;99.90;;;;;;5080837;28;20247;-80
2021/01/25 06:31:09;;;;;;;41.50;25.93;;;2.90;99.90;;;;;;5081579;28;20195;-80
2021/01/25 06:33:38;;;;;;;39.47;26.27;;;2.70;99.90;;;;;;5074352;28;20207;-79
2021/01/25 06:36:08;;;;;;;39.90;26.07;;;2.70;99.90;;;;;;5074422;28;20218;-79
2021/01/25 06:38:36;;;;;;;39.67;26.53;;;2.70;99.90;;;;;;5073669;28;20238;-78
2021/01/25 06:41:10;;;;;;;44.17;25.40;;;2.60;99.90;;;;;;5073500;28;20225;-77
2021/01/25 06:43:40;;;;;;;41.40;24.53;;;2.50;99.90;;;;;;5073778;28;20560;-77
2021/01/25 06:46:07;;;;;;;43.40;25.60;;;2.40;99.90;;;;;;5074168;28;20207;-78
2021/01/25 06:48:34;;;;;;;40.87;24.17;;;2.30;99.90;;;;;;5073994;28;20692;-77
2021/01/25 06:51:01;;;;;;;40.83;25.23;;;2.30;99.90;;;;;;5073844;28;20202;-78
2021/01/25 06:53:30;;;;;;;43.37;25.30;;;2.30;99.90;;;;;;5073994;28;20213;-78
2021/01/25 06:56:00;;;;;;;47.20;28.20;;;2.20;99.90;;;;;;5087927;28;20203;-78
2021/01/25 06:58:29;;;;;;;54.63;30.80;;;2.20;99.90;;;;;;5073353;28;20282;-78
2021/01/25 07:01:04;;;;;;;41.90;28.57;;;2.20;99.90;;;;;;5072631;28;20658;-77
2021/01/25 07:03:44;;;;;;;43.23;26.00;;;2.20;99.90;;;;;;5073705;28;20198;-77
2021/01/25 07:06:13;;;;;;;50.50;28.03;;;2.20;99.90;;;;;;5073404;28;20194;-77
2021/01/25 07:08:40;;;;;;;49.27;29.30;;;2.10;99.90;;;;;;5073777;28;20209;-77
2021/01/25 07:11:07;;;;;;;49.27;28.50;;;2.20;99.90;;;;;;5073370;28;20213;-79
2021/01/25 07:13:35;;;;;;;48.03;28.60;;;2.20;99.90;;;;;;5073536;28;20234;-77
2021/01/25 07:16:04;;;;;;;49.63;28.70;;;2.20;99.90;;;;;;5073187;28;20209;-80
2021/01/25 07:18:30;;;;;;;55.80;30.77;;;2.20;99.90;;;;;;5073119;28;20761;-77
2021/01/25 07:20:58;;;;;;;46.90;27.73;;;2.30;99.90;;;;;;5073216;28;20207;-77
2021/01/25 07:23:26;;;;;;;50.27;29.27;;;2.30;99.90;;;;;;5073157;28;20246;-77
2021/01/25 07:25:54;;;;;;;51.03;28.90;;;2.30;99.90;;;;;;5073541;28;20203;-78
2021/01/25 07:28:20;;;;;;;52.07;29.00;;;2.30;99.90;;;;;;5073014;28;20203;-77
2021/01/25 07:30:48;;;;;;;58.50;29.87;;;2.30;99.90;;;;;;5073354;28;20195;-77
2021/01/25 07:33:15;;;;;;;57.37;29.37;;;2.30;99.90;;;;;;5072915;28;20207;-76
2021/01/25 07:35:42;;;;;;;55.20;28.00;;;2.30;99.90;;;;;;5073364;28;20202;-77
2021/01/25 07:38:08;;;;;;;61.57;30.47;;;2.30;99.90;;;;;;5072568;28;20318;-78
2021/01/25 07:40:35;;;;;;;61.83;29.23;;;2.40;99.90;;;;;;5073316;28;20272;-78
2021/01/25 07:43:03;;;;;;;63.67;29.50;;;2.30;99.90;;;;;;5073084;28;20332;-78
2021/01/25 07:45:29;;;;;;;61.17;28.53;;;2.30;99.90;;;;;;5073184;28;20203;-78
2021/01/25 07:47:56;;;;;;;63.77;30.60;;;2.40;99.90;;;;;;5073118;28;20290;-78
2021/01/25 07:50:23;;;;;;;59.47;29.43;;;2.40;99.90;;;;;;5072873;28;20658;-79
2021/01/25 07:53:00;;;;;;;63.53;30.87;;;2.40;99.90;;;;;;5072652;28;20199;-78
2021/01/25 07:55:26;;;;;;;66.17;30.53;;;2.30;99.90;;;;;;5073138;28;20222;-78
2021/01/25 07:57:55;;;;;;;57.83;30.60;;;2.80;99.90;;;;;;5072999;28;20283;-78
2021/01/25 08:00:23;;;;;;;58.23;29.70;;;2.30;99.90;;;;;;5073359;28;20207;-80
2021/01/25 08:02:55;;;;;;;54.73;29.47;;;2.30;99.90;;;;;;5072520;28;20201;-78
2021/01/25 08:05:24;;;;;;;53.03;30.90;;;2.30;99.90;;;;;;5073152;28;20867;-78
2021/01/25 08:07:51;;;;;;;55.30;29.57;;;2.30;99.90;;;;;;5072410;28;20774;-78
2021/01/25 08:10:19;;;;;;;57.63;29.10;;;2.30;99.90;;;;;;5072994;28;20267;-77
2021/01/25 08:12:46;;;;;;;50.03;27.90;;;2.20;99.90;;;;;;5074709;28;20712;-77
2021/01/25 08:15:20;;;;;;;50.37;28.70;;;2.20;99.90;;;;;;5076861;28;20241;-78
2021/01/25 08:17:53;;;;;;;52.17;29.77;;;2.10;99.90;;;;;;5076479;28;20210;-78
2021/01/25 08:20:22;;;;;;;53.23;28.00;;;2.20;99.90;;;;;;5076971;28;20195;-77
2021/01/25 08:22:55;;;;;;;54.47;29.23;;;2.20;99.90;;;;;;5076846;28;20194;-77
2021/01/25 08:25:24;;;;;;;53.53;28.33;;;2.20;99.90;;;;;;5063880;28;20209;-78
2021/01/25 08:27:59;;;;;;;54.57;29.47;;;2.20;99.90;;;;;;5076341;28;20242;-77
2021/01/25 08:30:32;;;;;;;53.90;26.63;;;2.30;99.90;;;;;;5063323;28;20205;-77
2021/01/25 08:33:02;;;;;;;55.40;28.63;;;2.30;99.90;;;;;;5076704;28;20232;-77
2021/01/25 08:35:37;;;;;;;52.33;30.00;;;2.30;99.90;;;;;;5076902;28;20199;-77
2021/01/25 08:38:10;;;;;;;52.37;28.13;;;2.30;99.90;;;;;;5076230;28;20275;-77
2021/01/25 08:40:39;;;;;;;50.80;28.57;;;2.30;99.90;;;;;;5062739;28;20547;-78
2021/01/25 08:43:18;;;;;;;50.27;28.43;;;2.40;99.90;;;;;;5076356;28;20545;-77
2021/01/25 08:45:45;;;;;;;49.83;28.73;;;2.40;99.90;;;;;;5076313;28;20569;-78
2021/01/25 08:48:12;;;;;;;55.50;29.53;;;2.30;99.90;;;;;;5076102;28;20206;-78
2021/01/25 08:50:39;;;;;;;46.57;27.37;;;2.40;99.90;;;;;;5076187;28;20506;-78
2021/01/25 08:53:09;;;;;;;52.60;30.77;;;2.40;99.90;;;;;;5076264;28;20209;-78
2021/01/25 08:55:39;;;;;;;47.63;28.70;;;2.60;99.90;;;;;;5076269;28;20211;-78
2021/01/25 08:58:15;;;;;;;45.07;27.23;;;2.50;99.90;;;;;;5075990;28;20310;-77
2021/01/25 09:00:42;;;;;;;45.80;27.63;;;2.50;99.90;;;;;;5075898;28;20706;-78
2021/01/25 09:03:12;;;;;;;45.87;27.70;;;2.50;99.90;;;;;;5061997;28;20199;-78
2021/01/25 09:05:39;;;;;;;48.10;29.03;;;2.50;99.90;;;;;;5075680;28;20246;-81
2021/01/25 09:08:06;;;;;;;46.83;28.17;;;2.50;99.90;;;;;;5075931;28;20248;-78
2021/01/25 09:10:33;;;;;;;44.77;27.57;;;2.40;99.90;;;;;;5075704;28;20217;-77
2021/01/25 09:12:59;;;;;;;45.70;27.67;;;2.40;99.90;;;;;;5075704;28;20195;-77
2021/01/25 09:15:26;;;;;;;52.07;29.63;;;2.50;99.90;;;;;;5075569;28;20668;-78
2021/01/25 09:17:53;;;;;;;49.70;29.80;;;2.50;99.90;;;;;;5075550;28;20633;-78
2021/01/25 09:20:21;;;;;;;47.53;29.07;;;2.60;99.90;;;;;;5075983;28;20252;-78
2021/01/25 09:22:48;;;;;;;50.43;29.63;;;2.50;99.90;;;;;;5075538;28;20216;-78
2021/01/25 09:25:16;;;;;;;48.17;27.53;;;2.60;99.90;;;;;;5061340;28;20215;-78
2021/01/25 09:27:43;;;;;;;51.43;29.07;;;2.70;99.90;;;;;;5075720;28;20253;-78
2021/01/25 09:30:11;;;;;;;47.63;29.47;;;2.70;99.90;;;;;;5076123;28;20583;-78
2021/01/25 09:32:38;;;;;;;51.40;30.07;;;2.70;99.90;;;;;;5075711;28;20614;-78
2021/01/25 09:35:06;;;;;;;53.30;31.40;;;2.70;99.90;;;;;;5075749;28;20305;-78
2021/01/25 09:37:33;;;;;;;51.93;29.60;;;2.80;99.90;;;;;;5075421;28;20244;-80
2021/01/25 09:39:59;;;;;;;49.33;29.90;;;3.10;99.90;;;;;;5075035;28;20245;-79
2021/01/25 09:42:26;;;;;;;47.00;29.47;;;3.30;99.90;;;;;;5075973;28;20206;-79
2021/01/25 09:44:52;;;;;;;45.03;29.90;;;3.50;99.90;;;;;;5075534;28;20238;-78
2021/01/25 09:47:18;;;;;;;41.57;27.77;;;3.40;99.90;;;;;;5075329;28;20285;-79
2021/01/25 09:49:45;;;;;;;40.60;26.17;;;3.30;99.90;;;;;;5075461;28;20213;-80
2021/01/25 09:52:12;;;;;;;40.40;26.63;;;3.20;99.90;;;;;;5075281;28;20299;-78
2021/01/25 09:54:40;;;;;;;40.90;24.93;;;3.10;99.90;;;;;;5060899;28;20255;-78
2021/01/25 09:57:07;;;;;;;37.73;24.60;;;3.10;99.90;;;;;;5075393;28;20277;-78
2021/01/25 09:59:33;;;;;;;37.53;23.40;;;3.10;99.90;;;;;;5074632;28;20199;-79
2021/01/25 10:01:59;;;;;;;42.10;26.63;;;2.90;99.90;;;;;;5075156;28;20293;-79
2021/01/25 10:04:26;;;;;;;40.03;24.97;;;3.00;99.90;;;;;;5075131;28;20217;-79
2021/01/25 10:06:52;;;;;;;41.07;26.50;;;3.00;99.90;;;;;;5074617;28;20727;-79
2021/01/25 10:09:18;;;;;;;44.13;28.07;;;3.00;99.90;;;;;;5074453;28;20207;-79
2021/01/25 10:11:46;;;;;;;41.00;26.30;;;3.00;99.90;;;;;;5074952;28;20605;-79
2021/01/25 10:14:12;;;;;;;37.33;24.87;;;3.10;99.90;;;;;;5074250;28;20289;-80
2021/01/25 10:16:38;;;;;;;39.93;26.00;;;3.10;99.90;;;;;;5074668;28;20630;-79
2021/01/25 10:19:05;;;;;;;37.50;25.23;;;3.30;99.90;;;;;;5074724;28;20360;-79
2021/01/25 10:21:31;;;;;;;36.60;24.53;;;3.30;99.90;;;;;;5074246;28;20211;-79
2021/01/25 10:23:58;;;;;;;41.50;26.47;;;3.30;99.90;;;;;;5074584;28;20287;-80
2021/01/25 10:26:24;;;;;;;39.37;26.27;;;3.30;99.90;;;;;;5074627;28;20215;-79
2021/01/25 10:28:51;;;;;;;38.57;25.30;;;3.20;99.90;;;;;;5074704;28;20233;-79
2021/01/25 10:31:18;;;;;;;37.00;24.40;;;3.30;99.90;;;;;;5074471;28;20213;-79
2021/01/25 10:33:44;;;;;;;37.40;24.87;;;3.40;99.90;;;;;;5073950;28;20570;-79
2021/01/25 10:36:11;;;;;;;38.27;25.37;;;3.60;99.90;;;;;;5073508;28;20743;-79
2021/01/25 10:38:38;;;;;;;40.90;25.87;;;3.50;99.90;;;;;;5074214;28;20230;-79
2021/01/25 10:41:05;;;;;;;36.80;24.60;;;3.40;99.90;;;;;;5074442;28;20214;-79
2021/01/25 10:43:32;;;;;;;35.60;23.10;;;3.40;99.90;;;;;;5074135;28;20217;-79
2021/01/25 10:45:59;;;;;;;36.50;23.70;;;3.40;99.90;;;;;;5074484;28;20199;-79
2021/01/25 10:48:25;;;;;;;38.77;26.27;;;3.40;99.90;;;;;;5073950;28;20658;-80
2021/01/25 10:50:52;;;;;;;40.90;26.63;;;3.80;99.90;;;;;;5073887;28;20211;-80
2021/01/25 10:53:18;;;;;;;41.03;26.20;;;3.80;99.90;;;;;;5074213;28;20203;-80
2021/01/25 10:55:45;;;;;;;40.47;24.80;;;3.90;99.90;;;;;;5074144;28;20592;-80
2021/01/25 10:58:11;;;;;;;37.87;25.43;;;3.90;99.90;;;;;;5074036;28;20272;-80
2021/01/25 11:00:38;;;;;;;41.07;26.77;;;3.60;99.90;;;;;;5073702;28;20199;-80
2021/01/25 11:03:05;;;;;;;39.23;25.10;;;3.60;99.90;;;;;;5073506;28;20659;-80
2021/01/25 11:05:32;;;;;;;38.03;26.40;;;3.50;99.90;;;;;;5073842;28;20293;-80
2021/01/25 11:07:58;;;;;;;39.63;26.97;;;3.60;99.90;;;;;;5073778;28;20285;-81
2021/01/25 11:10:27;;;;;;;41.70;25.70;;;3.60;99.90;;;;;;5073918;28;20273;-80
2021/01/25 11:12:53;;;;;;;40.17;26.73;;;3.60;99.90;;;;;;5073873;28;20214;-80
2021/01/25 11:15:21;;;;;;;44.60;27.47;;;3.80;99.90;;;;;;5073601;28;20205;-81
2021/01/25 11:17:47;;;;;;;40.27;26.73;;;3.80;99.90;;;;;;5073455;28;20227;-81
2021/01/25 11:20:16;;;;;;;42.07;27.57;;;3.80;99.90;;;;;;5073255;28;20206;-83
2021/01/25 11:22:42;;;;;;;41.60;27.80;;;3.80;99.90;;;;;;5073237;28;20289;-81
2021/01/25 11:25:10;;;;;;;44.10;27.40;;;3.80;99.90;;;;;;5073511;28;20224;-81
2021/01/25 11:27:36;;;;;;;45.50;28.87;;;3.70;99.90;;;;;;5073648;28;20213;-80
2021/01/25 11:30:04;;;;;;;41.40;27.93;;;3.70;99.90;;;;;;5073499;28;20202;-80
2021/01/25 11:32:30;;;;;;;44.77;26.93;;;3.70;99.90;;;;;;5083779;28;20289;-80
2021/01/25 11:34:57;;;;;;;42.77;26.70;;;3.70;99.90;;;;;;5077530;28;20210;-80
2021/01/25 11:37:24;;;;;;;44.90;27.53;;;3.60;99.90;;;;;;5073446;28;20280;-80
2021/01/25 11:39:50;;;;;;;45.57;28.57;;;3.80;99.90;;;;;;5073032;28;20209;-83
2021/01/25 11:42:17;;;;;;;44.73;29.43;;;3.90;99.90;;;;;;5073575;28;20537;-80
2021/01/25 11:44:43;;;;;;;51.60;33.00;;;4.00;99.90;;;;;;5072879;28;20642;-81
2021/01/25 11:47:09;;;;;;;44.60;28.70;;;3.90;99.90;;;;;;5072918;28;20207;-81
2021/01/25 11:49:36;;;;;;;49.10;30.13;;;3.90;99.90;;;;;;5073633;28;20217;-81
2021/01/25 11:52:03;;;;;;;50.87;32.60;;;3.80;99.90;;;;;;5086243;28;20281;-81
2021/01/25 11:54:30;;;;;;;50.97;30.50;;;3.90;99.90;;;;;;5073821;28;20684;-81
2021/01/25 11:56:57;;;;;;;53.03;32.70;;;3.90;99.90;;;;;;5073286;28;20260;-81
2021/01/25 11:59:24;;;;;;;50.77;31.33;;;3.90;99.90;;;;;;5072926;28;20233;-81
2021/01/25 12:01:50;;;;;;;52.33;31.53;;;4.10;99.90;;;;;;5073374;28;20205;-81
2021/01/25 12:04:17;;;;;;;44.50;27.23;;;4.10;99.90;;;;;;5073007;28;20244;-82
2021/01/25 12:06:46;;;;;;;46.90;28.50;;;4.00;99.90;;;;;;5073382;28;20199;-79
2021/01/25 12:09:12;;;;;;;43.10;27.50;;;4.00;99.90;;;;;;5072816;28;20238;-79
2021/01/25 12:11:40;;;;;;;48.87;30.27;;;4.00;99.90;;;;;;5058865;28;20803;-79
2021/01/25 12:14:06;;;;;;;46.37;29.33;;;4.00;99.90;;;;;;5073691;28;20293;-80
2021/01/25 12:16:32;;;;;;;45.30;28.13;;;4.10;99.90;;;;;;5072994;28;20202;-79
2021/01/25 12:18:59;;;;;;;48.33;29.53;;;4.10;99.90;;;;;;5073128;28;20226;-79
2021/01/25 12:21:25;;;;;;;43.23;28.07;;;4.20;99.90;;;;;;5072927;28;20291;-80
2021/01/25 12:23:51;;;;;;;46.40;29.10;;;4.20;99.90;;;;;;5073310;28;20267;-81
2021/01/25 12:26:18;;;;;;;49.50;30.77;;;4.30;99.90;;;;;;5073319;28;20199;-80
2021/01/25 12:28:45;;;;;;;43.13;29.30;;;4.30;99.90;;;;;;5086270;28;20203;-80
2021/01/25 12:31:11;;;;;;;42.47;27.27;;;4.30;99.90;;;;;;5072907;28;20276;-82
2021/01/25 12:33:38;;;;;;;39.60;25.70;;;4.40;99.90;;;;;;5072768;28;20199;-79
2021/01/25 12:36:05;;;;;;;35.43;21.57;;;4.30;99.90;;;;;;5073424;28;20219;-84
2021/01/25 12:38:31;;;;;;;31.30;19.50;;;4.40;99.90;;;;;;5072612;28;20233;-79